Mercer County Airport Bluefield US
ICAO: KBLF
IATA: BLF
Category: Medium
Scheduled Services: Yes

Elevation: 2857 ft
TransAlt. 18000 ft.

Airport Communications:
ASOS:132.725
INDIANAPOLIS CNTR:126.575
CTAF:122.9
ELKINS RDO:122.2

KBLF Zoom In..

If you have problems with the map follow the link
https://www.worldairports.se/pages/airport.php?
ICAO=KBLF

Runways:

(A) RW 05 length 4743 ft width 100 ft
---- / hdg 49

(B) RW 23 length 4743 ft width 100 ft
ILS 109.50 / hdg 229

Location; KBLF
Day. 27 / Time. 06.52 Zulu
* Altimeter: 29.84
* Temperature: 00° c. 32°f.
* Wind from: 240° Speed 05 kn.
Dewpoint: -01° c.
Visibility: 10 Statute Miles.
Clouds: Overcast 700 ft.

KBLF 270652Z AUTO 24005KT 10SM OVC007 00/M01 A2984 RMK AO2 CIG 006V011 SLP121 T00001011 TSNO


Wind From 240°
Speed 05 kn.

 
 
jpsmedia worldairports.se 2020   terms of use